createdAt,value
2022-08-12T00:00:08.351Z,20.04
2022-08-12T00:02:54.760Z,20.04
2022-08-12T00:06:01.761Z,19.99
2022-08-12T00:08:50.776Z,19.92
2022-08-12T00:11:36.250Z,19.90
2022-08-12T00:14:21.867Z,19.86
2022-08-12T00:17:07.502Z,19.81
2022-08-12T00:19:53.351Z,19.78
2022-08-12T00:22:39.613Z,19.73
2022-08-12T00:26:05.465Z,19.71
2022-08-12T00:28:31.174Z,19.63
2022-08-12T00:31:16.689Z,19.64
2022-08-12T00:34:02.319Z,19.61
2022-08-12T00:36:48.887Z,19.55
2022-08-12T00:39:36.015Z,19.50
2022-08-12T00:42:12.340Z,19.47
2022-08-12T00:44:41.080Z,19.48
2022-08-12T00:47:24.041Z,19.43
2022-08-12T00:49:52.472Z,19.39
2022-08-12T00:52:20.364Z,19.39
2022-08-12T00:54:48.362Z,19.38
2022-08-12T00:57:20.200Z,19.33
2022-08-12T00:59:53.062Z,19.32
2022-08-12T01:02:30.918Z,19.25
2022-08-12T01:05:26.917Z,19.23
2022-08-12T01:08:13.473Z,19.18
2022-08-12T01:11:00.634Z,19.16
2022-08-12T01:13:28.348Z,19.11
2022-08-12T01:15:57.247Z,19.09
2022-08-12T01:18:28.946Z,19.08
2022-08-12T01:21:33.571Z,19.05
2022-08-12T01:24:32.233Z,18.97
2022-08-12T01:26:59.908Z,18.93
2022-08-12T01:29:33.184Z,18.97
2022-08-12T01:32:06.545Z,18.94
2022-08-12T01:34:38.929Z,18.89
2022-08-12T01:37:07.775Z,18.87
2022-08-12T01:40:34.587Z,18.83
2022-08-12T01:42:47.604Z,18.81
2022-08-12T01:45:14.821Z,18.79
2022-08-12T01:48:25.719Z,18.76
2022-08-12T01:51:06.060Z,18.70
2022-08-12T01:54:04.956Z,18.65
2022-08-12T01:56:50.306Z,18.66
2022-08-12T01:59:49.382Z,18.62
2022-08-12T02:02:27.232Z,18.57
2022-08-12T02:05:42.240Z,18.53
2022-08-12T02:08:52.993Z,18.47
2022-08-12T02:11:40.249Z,18.45
2022-08-12T02:14:39.699Z,18.45
2022-08-12T02:17:55.687Z,18.40
2022-08-12T02:21:09.859Z,18.35
2022-08-12T02:23:36.977Z,18.32
2022-08-12T02:26:06.081Z,18.35
2022-08-12T02:28:33.482Z,18.32
2022-08-12T02:31:08.159Z,18.29
2022-08-12T02:33:35.461Z,18.27
2022-08-12T02:36:03.037Z,18.27
2022-08-12T02:38:31.412Z,18.22
2022-08-12T02:40:59.505Z,18.22
2022-08-12T02:43:46.387Z,18.17
2022-08-12T02:46:15.104Z,18.15
2022-08-12T02:48:50.669Z,18.11
2022-08-12T02:51:19.527Z,18.12
2022-08-12T02:54:04.977Z,18.09
2022-08-12T02:56:42.100Z,18.04
2022-08-12T02:59:17.971Z,18.02
2022-08-12T03:01:50.036Z,18.00
2022-08-12T03:04:43.447Z,17.96
2022-08-12T03:07:10.960Z,17.92
2022-08-12T03:10:04.267Z,17.92
2022-08-12T03:12:41.444Z,17.88
2022-08-12T03:15:18.241Z,17.62
2022-08-12T03:18:27.172Z,17.72
2022-08-12T03:20:42.831Z,17.76
2022-08-12T03:23:28.709Z,17.76
2022-08-12T03:25:57.297Z,17.75
2022-08-12T03:28:43.253Z,17.73
2022-08-12T03:31:10.433Z,17.69
2022-08-12T03:33:39.073Z,17.69
2022-08-12T03:36:07.713Z,17.67
2022-08-12T03:38:42.169Z,17.63
2022-08-12T03:41:36.047Z,17.62
2022-08-12T03:44:26.684Z,17.56
2022-08-12T03:47:26.427Z,17.56
2022-08-12T03:50:11.776Z,17.51
2022-08-12T03:52:57.373Z,17.49
2022-08-12T03:55:42.817Z,17.47
2022-08-12T03:58:28.646Z,17.42
2022-08-12T04:00:55.858Z,17.39
2022-08-12T04:03:41.270Z,17.41
2022-08-12T04:06:11.498Z,17.39
2022-08-12T04:08:38.772Z,17.36
2022-08-12T04:11:24.942Z,17.36
2022-08-12T04:13:54.062Z,17.28
2022-08-12T04:16:21.035Z,17.29
2022-08-12T04:18:48.102Z,17.26
2022-08-12T04:21:15.130Z,17.29
2022-08-12T04:23:48.409Z,17.26
2022-08-12T04:26:15.805Z,17.04
2022-08-12T04:28:43.366Z,17.15
2022-08-12T04:31:10.454Z,17.20
2022-08-12T04:33:37.426Z,17.18
2022-08-12T04:36:05.103Z,17.22
2022-08-12T04:38:32.158Z,17.22
2022-08-12T04:40:59.209Z,17.19
2022-08-12T04:44:00.660Z,17.19
2022-08-12T04:46:13.323Z,17.18
2022-08-12T04:48:40.373Z,17.20
2022-08-12T04:51:10.968Z,17.20
2022-08-12T04:53:38.090Z,17.23
2022-08-12T04:56:05.474Z,17.23
2022-08-12T04:58:34.330Z,17.25
2022-08-12T05:01:04.023Z,17.27
2022-08-12T05:03:46.160Z,17.28
2022-08-12T05:06:26.472Z,17.31
2022-08-12T05:08:57.446Z,17.36
2022-08-12T05:11:25.192Z,17.39
2022-08-12T05:13:57.978Z,17.42
2022-08-12T05:16:30.762Z,17.42
2022-08-12T05:18:58.846Z,17.45
2022-08-12T05:21:26.610Z,17.52
2022-08-12T05:23:55.043Z,17.54
2022-08-12T05:26:23.005Z,17.60
2022-08-12T05:28:51.090Z,17.64
2022-08-12T05:31:47.712Z,17.70
2022-08-12T05:34:06.537Z,17.72
2022-08-12T05:36:33.838Z,17.79
2022-08-12T05:39:00.927Z,17.83
2022-08-12T05:41:32.412Z,17.89
2022-08-12T05:44:06.994Z,17.96
2022-08-12T05:46:34.322Z,17.97
2022-08-12T05:49:01.449Z,18.02
2022-08-12T05:51:39.879Z,18.09
2022-08-12T05:54:08.251Z,18.15
2022-08-12T05:56:35.856Z,18.22
2022-08-12T05:59:05.298Z,18.26
2022-08-12T06:02:09.382Z,18.34
2022-08-12T06:04:20.659Z,18.40
2022-08-12T06:06:51.633Z,18.46
2022-08-12T06:09:21.822Z,18.56
2022-08-12T06:11:54.031Z,18.63
2022-08-12T06:14:37.759Z,18.68
2022-08-12T06:17:07.682Z,18.74
2022-08-12T06:20:28.090Z,18.86
2022-08-12T06:22:22.552Z,18.93
2022-08-12T06:24:50.100Z,19.01
2022-08-12T06:27:18.983Z,19.11
2022-08-12T06:30:09.662Z,19.18
2022-08-12T06:32:34.496Z,19.27
2022-08-12T06:35:26.966Z,19.38
2022-08-12T06:37:56.962Z,19.48
2022-08-12T06:40:43.158Z,19.57
2022-08-12T06:43:10.268Z,19.68
2022-08-12T06:45:47.446Z,19.72
2022-08-12T06:48:14.674Z,19.83
2022-08-12T06:50:42.614Z,19.93
2022-08-12T06:53:11.443Z,20.04
2022-08-12T06:55:39.531Z,20.12
2022-08-12T06:58:25.594Z,20.23
2022-08-12T07:00:52.727Z,20.29
2022-08-12T07:03:25.828Z,20.40
2022-08-12T07:05:52.957Z,20.44
2022-08-12T07:08:19.995Z,20.55
2022-08-12T07:10:57.596Z,20.67
2022-08-12T07:14:02.660Z,20.76
2022-08-12T07:16:52.263Z,20.82
2022-08-12T07:19:25.286Z,20.91
2022-08-12T07:22:08.699Z,21.02
2022-08-12T07:24:35.728Z,21.12
2022-08-12T07:27:02.883Z,21.25
2022-08-12T07:30:03.764Z,21.33
2022-08-12T07:32:18.525Z,21.43
2022-08-12T07:34:47.605Z,21.52
2022-08-12T07:37:14.636Z,21.59
2022-08-12T07:39:49.996Z,21.67
2022-08-12T07:42:18.728Z,21.77
2022-08-12T07:44:47.378Z,21.86
2022-08-12T07:47:18.990Z,21.95
2022-08-12T07:50:04.879Z,22.02
2022-08-12T07:52:34.669Z,22.10
2022-08-12T07:55:02.369Z,22.18
2022-08-12T07:57:31.507Z,22.27
2022-08-12T08:00:07.797Z,22.34
2022-08-12T08:02:36.624Z,22.43
2022-08-12T08:05:04.748Z,22.58
2022-08-12T08:07:32.056Z,22.68
2022-08-12T08:10:00.123Z,22.75
2022-08-12T08:12:46.427Z,22.86
2022-08-12T08:15:17.152Z,22.94
2022-08-12T08:18:01.900Z,23.01
2022-08-12T08:20:34.080Z,23.13
2022-08-12T08:23:10.784Z,23.22
2022-08-12T08:25:39.130Z,23.29
2022-08-12T08:28:19.097Z,23.41
2022-08-12T08:30:49.586Z,23.42
2022-08-12T08:33:24.597Z,23.51
2022-08-12T08:36:15.458Z,23.60
2022-08-12T08:38:53.132Z,23.75
2022-08-12T08:42:17.157Z,23.85
2022-08-12T08:44:38.421Z,23.89
2022-08-12T08:47:08.117Z,24.01
2022-08-12T08:52:06.405Z,24.17
2022-08-12T08:54:34.119Z,24.23
2022-08-12T08:57:01.780Z,24.32
2022-08-12T08:59:37.546Z,24.42
2022-08-12T09:02:09.026Z,24.49
2022-08-12T09:05:12.843Z,24.60
2022-08-12T09:07:58.972Z,24.69
2022-08-12T09:10:53.340Z,24.83
2022-08-12T09:13:29.394Z,24.58
2022-08-12T09:16:12.522Z,24.88
2022-08-12T09:18:41.301Z,25.08
2022-08-12T09:21:09.873Z,25.26
2022-08-12T09:23:56.986Z,25.39
2022-08-12T09:26:28.350Z,25.45
2022-08-12T09:28:57.189Z,25.64
2022-08-12T09:32:03.446Z,25.74
2022-08-12T09:34:25.893Z,25.82
2022-08-12T09:37:02.418Z,25.93
2022-08-12T09:40:04.553Z,26.06
2022-08-12T09:42:43.611Z,26.15
2022-08-12T09:46:11.814Z,26.25
2022-08-12T09:48:20.033Z,26.42
2022-08-12T09:50:51.945Z,26.55
2022-08-12T09:53:36.387Z,26.68
2022-08-12T09:56:58.791Z,26.81
2022-08-12T09:58:58.697Z,26.94
2022-08-12T10:01:34.549Z,27.08
2022-08-12T10:04:19.836Z,27.21
2022-08-12T10:06:55.031Z,27.36
2022-08-12T10:09:28.599Z,27.48
2022-08-12T10:12:32.773Z,27.55
2022-08-12T10:19:06.124Z,27.75
2022-08-12T10:21:45.296Z,27.88
2022-08-12T10:24:24.477Z,28.07
2022-08-12T10:27:24.082Z,28.16
2022-08-12T10:30:39.491Z,28.28
2022-08-12T10:33:19.272Z,28.43
2022-08-12T10:36:05.261Z,28.52
2022-08-12T10:38:43.897Z,28.66
2022-08-12T10:41:57.409Z,28.77
2022-08-12T10:44:17.741Z,28.87
2022-08-12T10:46:49.126Z,29.05
2022-08-12T10:50:03.351Z,29.13
2022-08-12T10:52:34.597Z,29.25
2022-08-12T10:54:56.311Z,29.35
2022-08-12T10:58:13.018Z,29.43
2022-08-12T11:00:34.426Z,29.50
2022-08-12T11:04:18.134Z,29.64
2022-08-12T11:07:06.268Z,29.68
2022-08-12T11:08:48.777Z,29.82
2022-08-12T11:12:35.639Z,29.90
2022-08-12T11:14:49.098Z,29.96
2022-08-12T11:17:52.891Z,30.01
2022-08-12T11:20:24.288Z,30.09
2022-08-12T11:23:00.004Z,30.18
2022-08-12T11:25:56.465Z,30.29
2022-08-12T11:28:33.995Z,30.26
2022-08-12T11:31:03.724Z,30.39
2022-08-12T11:34:06.678Z,30.48
2022-08-12T11:36:21.851Z,30.57
2022-08-12T11:38:50.806Z,30.65
2022-08-12T11:41:28.188Z,30.79
2022-08-12T11:44:37.683Z,30.84
2022-08-12T11:46:58.288Z,30.90
2022-08-12T11:49:32.854Z,31.00
2022-08-12T11:52:02.911Z,31.00
2022-08-12T11:54:33.461Z,31.12
2022-08-12T11:57:02.236Z,31.20
2022-08-12T12:02:20.579Z,31.29
2022-08-12T12:04:52.272Z,31.34
2022-08-12T12:07:34.018Z,31.37
2022-08-12T12:10:18.243Z,31.43
2022-08-12T12:12:50.072Z,31.43
2022-08-12T12:15:25.466Z,31.48
2022-08-12T12:18:30.774Z,31.50
2022-08-12T12:21:01.053Z,31.54
2022-08-12T12:23:31.012Z,31.60
2022-08-12T12:26:08.224Z,31.59
2022-08-12T12:28:54.467Z,31.59
2022-08-12T12:32:11.636Z,31.58
2022-08-12T12:34:30.012Z,31.59
2022-08-12T12:37:01.699Z,31.53
2022-08-12T12:39:54.831Z,31.58
2022-08-12T12:42:43.642Z,31.51
2022-08-12T12:45:20.454Z,31.53
2022-08-12T12:48:00.711Z,31.56
2022-08-12T12:50:45.414Z,31.54
2022-08-12T12:54:06.840Z,31.52
2022-08-12T12:56:34.826Z,31.46
2022-08-12T12:59:54.662Z,31.45
2022-08-12T13:01:59.839Z,31.43
2022-08-12T13:04:34.880Z,31.43
2022-08-12T13:07:07.134Z,31.43
2022-08-12T13:09:36.640Z,31.37
2022-08-12T13:15:08.997Z,31.36
2022-08-12T13:18:02.091Z,31.30
2022-08-12T13:20:38.257Z,31.26
2022-08-12T13:23:35.708Z,31.27
2022-08-12T13:26:03.216Z,31.23
2022-08-12T13:28:31.021Z,31.25
2022-08-12T13:31:00.751Z,31.27
2022-08-12T13:36:47.390Z,31.21
2022-08-12T13:39:21.580Z,31.27
2022-08-12T13:41:54.779Z,31.21
2022-08-12T13:45:03.074Z,31.12
2022-08-12T13:48:20.301Z,30.99
2022-08-12T13:50:47.401Z,31.06
2022-08-12T13:53:26.080Z,31.10
2022-08-12T13:56:03.299Z,31.06
2022-08-12T13:58:33.059Z,31.09
2022-08-12T14:01:06.499Z,31.08
2022-08-12T14:03:51.225Z,31.09
2022-08-12T14:06:19.212Z,31.01
2022-08-12T14:08:54.847Z,31.04
2022-08-12T14:11:25.313Z,31.04
2022-08-12T14:14:05.836Z,31.04
2022-08-12T14:16:49.046Z,31.04
2022-08-12T14:19:24.416Z,31.03
2022-08-12T14:21:59.544Z,31.00
2022-08-12T14:24:30.866Z,31.01
2022-08-12T14:27:01.874Z,30.99
2022-08-12T14:29:56.014Z,30.96
2022-08-12T14:32:18.526Z,30.92
2022-08-12T14:34:51.595Z,30.93
2022-08-12T14:37:55.232Z,30.86
2022-08-12T14:40:07.091Z,30.80
2022-08-12T14:42:34.140Z,30.77
2022-08-12T14:45:02.246Z,30.81
2022-08-12T14:47:35.097Z,30.77
2022-08-12T14:50:37.813Z,30.75
2022-08-12T14:59:57.910Z,30.60
2022-08-12T15:02:29.782Z,30.50
2022-08-12T15:04:59.776Z,30.54
2022-08-12T15:07:33.145Z,30.56
2022-08-12T15:10:10.976Z,30.51
2022-08-12T15:12:40.648Z,30.53
2022-08-12T15:15:10.290Z,30.50
2022-08-12T15:17:59.121Z,30.50
2022-08-12T15:20:33.112Z,30.42
2022-08-12T15:23:06.055Z,30.39
2022-08-12T15:25:47.892Z,30.37
2022-08-12T15:28:21.216Z,30.36
2022-08-12T15:30:49.820Z,30.33
2022-08-12T15:33:21.012Z,30.29
2022-08-12T15:35:53.958Z,30.26
2022-08-12T15:38:25.010Z,30.27
2022-08-12T15:40:52.902Z,30.26
2022-08-12T15:43:51.778Z,30.23
2022-08-12T15:46:07.687Z,30.17
2022-08-12T15:48:47.169Z,30.13
2022-08-12T15:51:59.324Z,30.09
2022-08-12T15:54:35.076Z,30.04
2022-08-12T15:57:08.026Z,30.03
2022-08-12T15:59:59.985Z,30.01
2022-08-12T16:02:29.397Z,29.96
2022-08-12T16:04:57.486Z,29.94
2022-08-12T16:07:30.238Z,29.93
2022-08-12T16:10:06.796Z,29.88
2022-08-12T16:12:43.670Z,29.84
2022-08-12T16:15:25.053Z,29.78
2022-08-12T16:18:17.722Z,29.77
2022-08-12T16:20:42.469Z,29.68
2022-08-12T16:23:36.114Z,29.69
2022-08-12T16:26:14.149Z,29.63
2022-08-12T16:28:43.987Z,29.60
2022-08-12T16:31:22.740Z,29.56
2022-08-12T16:33:59.284Z,29.50
2022-08-12T16:36:29.313Z,29.50
2022-08-12T16:38:56.542Z,29.47
2022-08-12T16:41:23.573Z,29.43
2022-08-12T16:43:50.682Z,29.40
2022-08-12T16:46:31.627Z,29.37
2022-08-12T16:49:04.179Z,29.30
2022-08-12T16:51:46.154Z,29.28
2022-08-12T16:54:36.001Z,29.22
2022-08-12T16:57:09.829Z,29.17
2022-08-12T16:59:53.477Z,29.14
2022-08-12T17:02:31.519Z,29.07
2022-08-12T17:05:03.272Z,29.04
2022-08-12T17:07:36.487Z,29.01
2022-08-12T17:10:09.045Z,29.00
2022-08-12T17:12:37.694Z,28.91
2022-08-12T17:15:50.707Z,28.89
2022-08-12T17:18:39.307Z,28.80
2022-08-12T17:20:46.780Z,28.74
2022-08-12T17:23:17.975Z,28.73
2022-08-12T17:25:49.077Z,28.66
2022-08-12T17:28:17.988Z,28.60
2022-08-12T17:30:45.067Z,28.58
2022-08-12T17:33:24.930Z,28.52
2022-08-12T17:35:53.405Z,28.47
2022-08-12T17:38:21.277Z,28.44
2022-08-12T17:40:51.296Z,28.38
2022-08-12T17:43:56.201Z,28.33
2022-08-12T17:46:12.791Z,28.22
2022-08-12T17:48:54.619Z,28.21
2022-08-12T17:51:24.404Z,28.08
2022-08-12T17:54:06.199Z,28.07
2022-08-12T17:56:39.772Z,28.00
2022-08-12T17:59:07.673Z,27.94
2022-08-12T18:01:35.987Z,27.88
2022-08-12T18:04:21.579Z,27.87
2022-08-12T18:06:55.811Z,27.75
2022-08-12T18:09:24.574Z,27.68
2022-08-12T18:12:12.149Z,27.63
2022-08-12T18:14:41.491Z,27.59
2022-08-12T18:17:09.655Z,27.52
2022-08-12T18:20:05.284Z,27.49
2022-08-12T18:22:39.539Z,27.39
2022-08-12T18:26:12.181Z,27.34
2022-08-12T18:28:15.388Z,27.23
2022-08-12T18:30:52.559Z,27.16
2022-08-12T18:33:25.575Z,27.12
2022-08-12T18:35:55.753Z,27.08
2022-08-12T18:38:25.402Z,27.01
2022-08-12T18:41:11.325Z,26.94
2022-08-12T18:44:04.848Z,26.90
2022-08-12T18:46:47.497Z,26.82
2022-08-12T18:49:24.840Z,26.75
2022-08-12T18:52:04.035Z,26.69
2022-08-12T18:54:35.112Z,26.61
2022-08-12T18:57:16.178Z,26.55
2022-08-12T19:00:02.300Z,26.49
2022-08-12T19:02:36.035Z,26.41
2022-08-12T19:05:10.136Z,26.39
2022-08-12T19:08:01.199Z,26.32
2022-08-12T19:10:30.473Z,26.24
2022-08-12T19:13:23.274Z,26.21
2022-08-12T19:15:58.247Z,26.15
2022-08-12T19:18:29.156Z,26.08
2022-08-12T19:20:58.695Z,26.05
2022-08-12T19:23:35.331Z,26.01
2022-08-12T19:26:03.826Z,25.93
2022-08-12T19:28:38.584Z,25.92
2022-08-12T19:31:44.791Z,25.86
2022-08-12T19:37:20.458Z,25.67
2022-08-12T19:40:08.638Z,25.68
2022-08-12T19:42:42.592Z,25.61
2022-08-12T19:45:15.861Z,25.57
2022-08-12T19:47:44.968Z,25.52
2022-08-12T19:50:20.077Z,25.49
2022-08-12T19:52:47.950Z,25.44
2022-08-12T19:55:21.601Z,25.36
2022-08-12T19:58:01.838Z,25.34
2022-08-12T20:00:31.850Z,25.25
2022-08-12T20:03:03.111Z,25.21
2022-08-12T20:06:05.452Z,25.16
2022-08-12T20:08:20.834Z,25.10
2022-08-12T20:12:13.578Z,25.03
2022-08-12T20:14:01.373Z,24.98
2022-08-12T20:16:51.926Z,24.93
2022-08-12T20:19:18.743Z,24.86
2022-08-12T20:21:45.778Z,24.84
2022-08-12T20:24:14.161Z,24.83
2022-08-12T20:26:42.174Z,24.75
2022-08-12T20:29:11.280Z,24.71
2022-08-12T20:31:43.079Z,24.70
2022-08-12T20:34:12.343Z,24.66
2022-08-12T20:36:44.217Z,24.63
2022-08-12T20:39:33.804Z,24.56
2022-08-12T20:42:07.233Z,24.48
2022-08-12T20:44:39.710Z,24.48
2022-08-12T20:47:19.547Z,24.42
2022-08-12T20:49:55.048Z,24.37
2022-08-12T20:52:25.568Z,24.35
2022-08-12T20:55:15.697Z,24.30
2022-08-12T20:58:01.815Z,24.25
2022-08-12T21:00:30.314Z,24.20
2022-08-12T21:03:18.058Z,24.20
2022-08-12T21:06:14.392Z,24.14
2022-08-12T21:11:10.395Z,24.02
2022-08-12T21:13:41.961Z,24.04
2022-08-12T21:16:10.248Z,24.00
2022-08-12T21:18:38.156Z,23.97
2022-08-12T21:21:05.688Z,23.90
2022-08-12T21:23:37.033Z,23.90
2022-08-12T21:26:06.191Z,23.86
2022-08-12T21:28:39.247Z,23.82
2022-08-12T21:32:37.939Z,23.78
2022-08-12T21:34:06.803Z,23.72
2022-08-12T21:36:35.785Z,23.66
2022-08-12T21:39:20.548Z,23.66
2022-08-12T21:41:54.048Z,23.60
2022-08-12T21:44:24.655Z,23.55
2022-08-12T21:47:19.818Z,23.50
2022-08-12T21:49:53.851Z,23.47
2022-08-12T21:52:22.391Z,23.46
2022-08-12T21:55:01.680Z,23.43
2022-08-12T21:57:30.542Z,23.39
2022-08-12T22:00:16.986Z,23.38
2022-08-12T22:03:03.213Z,23.33
2022-08-12T22:05:50.557Z,23.26
2022-08-12T22:08:22.047Z,23.25
2022-08-12T22:10:52.725Z,23.23
2022-08-12T22:14:04.159Z,23.21
2022-08-12T22:16:12.757Z,23.14
2022-08-12T22:18:40.753Z,23.11
2022-08-12T22:21:09.169Z,23.08
2022-08-12T22:24:04.093Z,23.08
2022-08-12T22:26:29.358Z,23.03
2022-08-12T22:29:22.992Z,22.96
2022-08-12T22:31:50.004Z,22.93
2022-08-12T22:34:18.400Z,22.93
2022-08-12T22:36:47.432Z,22.89
2022-08-12T22:39:17.012Z,22.86
2022-08-12T22:42:02.591Z,22.82
2022-08-12T22:44:54.059Z,22.77
2022-08-12T22:47:53.629Z,22.74
2022-08-12T22:50:26.931Z,22.68
2022-08-12T22:53:15.331Z,22.68
2022-08-12T22:55:53.457Z,22.64
2022-08-12T22:58:27.409Z,22.34
2022-08-12T23:01:01.783Z,22.45
2022-08-12T23:03:49.579Z,22.52
2022-08-12T23:06:24.047Z,22.45
2022-08-12T23:08:52.018Z,22.44
2022-08-12T23:11:23.508Z,22.42
2022-08-12T23:14:03.338Z,22.39
2022-08-12T23:16:33.445Z,22.35
2022-08-12T23:19:18.114Z,22.28
2022-08-12T23:22:06.630Z,22.25
2022-08-12T23:24:56.302Z,22.22
2022-08-12T23:27:51.813Z,22.16
2022-08-12T23:30:31.800Z,22.12
2022-08-12T23:33:20.544Z,22.11
2022-08-12T23:36:02.939Z,22.05
2022-08-12T23:38:32.518Z,22.03
2022-08-12T23:41:01.414Z,22.01
2022-08-12T23:43:38.949Z,21.99
2022-08-12T23:46:09.857Z,21.90
2022-08-12T23:48:37.926Z,21.87
2022-08-12T23:51:22.549Z,21.86
2022-08-12T23:53:59.731Z,21.79
2022-08-12T23:56:27.574Z,21.76
2022-08-12T23:58:58.616Z,21.73
